createdAt,value
2023-09-02T00:01:27.917Z,101811.78
2023-09-02T00:04:32.920Z,101808.38
2023-09-02T00:07:36.562Z,101816.25
2023-09-02T00:10:40.811Z,101812.06
2023-09-02T00:13:44.340Z,101812.13
2023-09-02T00:16:47.829Z,101811.22
2023-09-02T00:19:52.799Z,101804.19
2023-09-02T00:22:57.170Z,101799.88
2023-09-02T00:26:01.746Z,101800.72
2023-09-02T00:29:05.400Z,101799.88
2023-09-02T00:32:09.121Z,101805.28
2023-09-02T00:35:14.058Z,101811.56
2023-09-02T00:38:17.810Z,101802.88
2023-09-02T00:41:29.386Z,101803.84
2023-09-02T00:44:34.095Z,101810.84
2023-09-02T00:47:37.981Z,101811.59
2023-09-02T00:50:42.957Z,101807.44
2023-09-02T00:53:47.033Z,101816.34
2023-09-02T00:56:50.914Z,101817.94
2023-09-02T00:59:54.767Z,101812.69
2023-09-02T01:03:00.464Z,101811.84
2023-09-02T01:06:08.433Z,101810.06
2023-09-02T01:09:13.032Z,101803.22
2023-09-02T01:12:16.751Z,101818.13
2023-09-02T01:15:29.449Z,101812.94
2023-09-02T01:18:34.684Z,101812.19
2023-09-02T01:22:05.373Z,101821.78
2023-09-02T01:25:35.790Z,101809.59
2023-09-02T01:28:44.895Z,101816.63
2023-09-02T01:31:50.287Z,101817.66
2023-09-02T01:34:56.456Z,101818.50
2023-09-02T01:38:01.391Z,101828.22
2023-09-02T01:41:07.683Z,101835.28
2023-09-02T01:44:15.578Z,101830.88
2023-09-02T01:47:19.852Z,101834.53
2023-09-02T01:50:28.585Z,101842.47
2023-09-02T01:53:32.630Z,101839.91
2023-09-02T01:56:37.044Z,101849.53
2023-09-02T01:59:41.930Z,101847.84
2023-09-02T02:02:47.096Z,101851.25
2023-09-02T02:05:55.624Z,101848.66
2023-09-02T02:09:06.998Z,101847.16
2023-09-02T02:12:11.547Z,101852.44
2023-09-02T02:15:26.120Z,101850.63
2023-09-02T02:18:30.958Z,101855.88
2023-09-02T02:21:35.115Z,101864.63
2023-09-02T02:24:38.683Z,101869.00
2023-09-02T02:27:42.168Z,101867.25
2023-09-02T02:30:47.113Z,101858.56
2023-09-02T02:33:50.672Z,101854.13
2023-09-02T02:36:54.203Z,101862.06
2023-09-02T02:39:57.659Z,101865.75
2023-09-02T02:43:01.382Z,101870.97
2023-09-02T02:46:06.392Z,101866.63
2023-09-02T02:49:12.752Z,101872.75
2023-09-02T02:52:16.273Z,101868.38
2023-09-02T02:55:19.967Z,101867.53
2023-09-02T02:58:23.523Z,101866.59
2023-09-02T03:01:28.438Z,101872.72
2023-09-02T03:04:33.514Z,101869.31
2023-09-02T03:07:37.000Z,101872.91
2023-09-02T03:10:40.622Z,101875.63
2023-09-02T03:13:44.181Z,101879.94
2023-09-02T03:16:49.029Z,101876.50
2023-09-02T03:19:52.688Z,101874.78
2023-09-02T03:22:56.312Z,101873.94
2023-09-02T03:26:08.775Z,101872.28
2023-09-02T03:29:12.298Z,101879.25
2023-09-02T03:32:17.189Z,101877.59
2023-09-02T03:35:21.295Z,101874.13
2023-09-02T03:38:24.990Z,101868.16
2023-09-02T03:41:28.717Z,101862.00
2023-09-02T03:44:35.725Z,101860.25
2023-09-02T03:47:40.847Z,101867.28
2023-09-02T03:51:04.967Z,101874.31
2023-09-02T03:54:08.869Z,101888.31
2023-09-02T03:57:12.361Z,101892.72
2023-09-02T04:00:18.401Z,101889.31
2023-09-02T04:03:23.936Z,101896.31
2023-09-02T04:06:28.250Z,101899.91
2023-09-02T04:09:31.779Z,101900.84
2023-09-02T04:12:36.642Z,101892.03
2023-09-02T04:15:40.137Z,101895.75
2023-09-02T04:18:45.169Z,101899.50
2023-09-02T04:21:50.260Z,101909.25
2023-09-02T04:24:53.918Z,101918.84
2023-09-02T04:27:57.420Z,101918.00
2023-09-02T04:31:01.624Z,101920.72
2023-09-02T04:34:06.524Z,101926.69
2023-09-02T04:37:10.079Z,101934.50
2023-09-02T04:40:15.158Z,101935.38
2023-09-02T04:43:19.646Z,101931.84
2023-09-02T04:46:23.477Z,101927.41
2023-09-02T04:49:28.975Z,101929.97
2023-09-02T04:52:32.510Z,101929.88
2023-09-02T04:55:39.885Z,101937.63
2023-09-02T04:58:43.488Z,101934.94
2023-09-02T05:01:47.096Z,101941.03
2023-09-02T05:04:53.152Z,101944.56
2023-09-02T05:07:57.220Z,101942.06
2023-09-02T05:11:00.696Z,101945.47
2023-09-02T05:14:04.301Z,101958.38
2023-09-02T05:17:07.861Z,101949.63
2023-09-02T05:20:14.040Z,101954.72
2023-09-02T05:23:17.858Z,101957.22
2023-09-02T05:26:21.694Z,101949.25
2023-09-02T05:29:25.310Z,101957.81
2023-09-02T05:32:28.958Z,101950.81
2023-09-02T05:35:33.843Z,101960.34
2023-09-02T05:38:37.763Z,101963.59
2023-09-02T05:41:41.273Z,101963.53
2023-09-02T05:44:45.139Z,101962.34
2023-09-02T05:47:48.770Z,101967.34
2023-09-02T05:50:59.008Z,101967.06
2023-09-02T05:54:02.648Z,101962.47
2023-09-02T05:57:06.742Z,101967.53
2023-09-02T06:00:12.733Z,101959.97
2023-09-02T06:03:16.678Z,101955.19
2023-09-02T06:06:21.824Z,101954.94
2023-09-02T06:09:27.716Z,101951.84
2023-09-02T06:12:31.966Z,101955.13
2023-09-02T06:15:36.957Z,101959.06
2023-09-02T06:18:40.659Z,101962.06
2023-09-02T06:21:46.823Z,101962.03
2023-09-02T06:24:50.533Z,101973.13
2023-09-02T06:27:54.071Z,101974.31
2023-09-02T06:30:58.107Z,101974.75
2023-09-02T06:34:01.662Z,101973.31
2023-09-02T06:37:07.005Z,101981.22
2023-09-02T06:40:12.756Z,101979.09
2023-09-02T06:43:16.641Z,101982.00
2023-09-02T06:46:22.597Z,101984.59
2023-09-02T06:49:26.238Z,101985.97
2023-09-02T06:52:31.256Z,101991.00
2023-09-02T06:55:35.174Z,101993.09
2023-09-02T06:58:42.505Z,101990.56
2023-09-02T07:01:46.071Z,101994.22
2023-09-02T07:04:50.849Z,102000.56
2023-09-02T07:07:55.758Z,101997.56
2023-09-02T07:10:59.889Z,101999.25
2023-09-02T07:14:03.720Z,102004.13
2023-09-02T07:17:07.552Z,101997.28
2023-09-02T07:20:13.193Z,101998.97
2023-09-02T07:23:18.624Z,102006.78
2023-09-02T07:26:22.776Z,102003.78
2023-09-02T07:29:26.596Z,102007.44
2023-09-02T07:32:30.216Z,102006.38
2023-09-02T07:35:37.310Z,102012.34
2023-09-02T07:38:45.415Z,102013.97
2023-09-02T07:41:50.073Z,102015.72
2023-09-02T07:44:53.658Z,102013.84
2023-09-02T07:47:57.663Z,102013.66
2023-09-02T07:51:02.203Z,102024.28
2023-09-02T07:54:07.495Z,102029.59
2023-09-02T07:57:11.152Z,102019.09
2023-09-02T08:00:14.879Z,102026.44
2023-09-02T08:03:18.725Z,102033.31
2023-09-02T08:06:22.868Z,102042.09
2023-09-02T08:09:27.796Z,102035.19
2023-09-02T08:12:31.434Z,102036.28
2023-09-02T08:15:35.189Z,102032.84
2023-09-02T08:18:39.212Z,102023.16
2023-09-02T08:21:42.679Z,102027.38
2023-09-02T08:24:47.583Z,102029.00
2023-09-02T08:27:52.040Z,102028.56
2023-09-02T08:30:55.599Z,102033.38
2023-09-02T08:33:59.230Z,102047.09
2023-09-02T08:37:02.827Z,102049.13
2023-09-02T08:40:09.742Z,102044.91
2023-09-02T08:43:16.123Z,102053.16
2023-09-02T08:46:22.166Z,102061.84
2023-09-02T08:49:26.857Z,102056.34
2023-09-02T08:52:31.475Z,102061.16
2023-09-02T08:55:38.128Z,102058.19
2023-09-02T08:58:42.196Z,102061.09
2023-09-02T09:01:48.259Z,102066.69
2023-09-02T09:04:53.884Z,102065.81
2023-09-02T09:07:58.565Z,102069.09
2023-09-02T09:11:06.981Z,102078.66
2023-09-02T09:14:19.380Z,102065.72
2023-09-02T09:17:23.992Z,102070.84
2023-09-02T09:20:28.121Z,102074.03
2023-09-02T09:23:31.711Z,102072.94
2023-09-02T09:26:36.862Z,102067.84
2023-09-02T09:29:44.695Z,102069.22
2023-09-02T09:33:01.871Z,102071.59
2023-09-02T09:36:14.860Z,102077.25
2023-09-02T09:39:18.407Z,102073.59
2023-09-02T09:42:37.016Z,102083.25
2023-09-02T09:45:52.323Z,102087.03
2023-09-02T09:49:02.257Z,102088.53
2023-09-02T09:52:14.940Z,102095.66
2023-09-02T09:55:26.513Z,102096.78
2023-09-02T09:58:31.890Z,102102.00
2023-09-02T10:01:35.424Z,102100.31
2023-09-02T10:04:39.009Z,102106.03
2023-09-02T10:07:42.690Z,102107.41
2023-09-02T10:10:46.519Z,102110.16
2023-09-02T10:13:53.956Z,102114.13
2023-09-02T10:16:58.560Z,102112.13
2023-09-02T10:20:02.225Z,102112.94
2023-09-02T10:23:08.884Z,102118.44
2023-09-02T10:26:20.456Z,102110.75
2023-09-02T10:29:34.646Z,102114.31
2023-09-02T10:32:47.264Z,102116.13
2023-09-02T10:36:00.847Z,102114.81
2023-09-02T10:39:11.733Z,102114.91
2023-09-02T10:42:18.273Z,102120.88
2023-09-02T10:45:31.896Z,102127.97
2023-09-02T10:48:39.559Z,102119.75
2023-09-02T10:51:44.405Z,102121.78
2023-09-02T10:55:05.300Z,102127.56
2023-09-02T10:58:08.937Z,102128.09
2023-09-02T11:01:14.222Z,102124.66
2023-09-02T11:04:58.601Z,102120.47
2023-09-02T11:08:36.953Z,102122.66
2023-09-02T11:12:12.306Z,102127.72
2023-09-02T11:15:25.459Z,102117.25
2023-09-02T11:18:33.694Z,102119.66
2023-09-02T11:21:42.683Z,102120.50
2023-09-02T11:24:51.039Z,102123.91
2023-09-02T11:27:56.620Z,102121.88
2023-09-02T11:31:11.835Z,102126.97
2023-09-02T11:34:19.410Z,102144.09
2023-09-02T11:37:33.346Z,102147.59
2023-09-02T11:40:38.073Z,102151.50
2023-09-02T11:43:41.837Z,102155.94
2023-09-02T11:46:45.523Z,102145.41
2023-09-02T11:49:50.650Z,102149.69
2023-09-02T11:52:56.557Z,102150.06
2023-09-02T11:56:03.010Z,102144.88
2023-09-02T11:59:06.711Z,102142.44
2023-09-02T12:02:10.875Z,102151.91
2023-09-02T12:05:17.388Z,102158.19
2023-09-02T12:08:21.222Z,102153.00
2023-09-02T12:11:25.362Z,102142.13
2023-09-02T12:14:30.137Z,102136.69
2023-09-02T12:17:34.454Z,102143.38
2023-09-02T12:20:39.771Z,102148.34
2023-09-02T12:23:43.511Z,102140.13
2023-09-02T12:26:48.384Z,102128.13
2023-09-02T12:30:00.908Z,102141.19
2023-09-02T12:33:06.714Z,102132.28
2023-09-02T12:36:11.736Z,102142.22
2023-09-02T12:39:24.943Z,102139.81
2023-09-02T12:42:28.491Z,102133.66
2023-09-02T12:45:33.783Z,102136.41
2023-09-02T12:48:37.512Z,102137.09
2023-09-02T12:51:42.573Z,102142.13
2023-09-02T12:54:55.782Z,102132.22
2023-09-02T12:57:59.554Z,102125.75
2023-09-02T13:01:05.385Z,102128.53
2023-09-02T13:04:09.296Z,102130.28
2023-09-02T13:07:14.618Z,102126.72
2023-09-02T13:10:18.936Z,102125.19
2023-09-02T13:13:22.551Z,102127.75
2023-09-02T13:16:30.054Z,102133.66
2023-09-02T13:19:34.560Z,102128.75
2023-09-02T13:22:39.656Z,102127.72
2023-09-02T13:25:43.468Z,102132.97
2023-09-02T13:28:47.093Z,102127.88
2023-09-02T13:31:50.669Z,102123.06
2023-09-02T13:34:56.854Z,102116.13
2023-09-02T13:38:02.105Z,102113.03
2023-09-02T13:41:05.883Z,102110.97
2023-09-02T13:44:11.720Z,102112.16
2023-09-02T13:47:19.084Z,102102.84
2023-09-02T13:50:23.887Z,102102.50
2023-09-02T13:53:29.493Z,102099.13
2023-09-02T13:56:33.501Z,102099.91
2023-09-02T13:59:37.074Z,102100.25
2023-09-02T14:02:42.407Z,102101.31
2023-09-02T14:05:48.984Z,102109.41
2023-09-02T14:08:54.158Z,102103.56
2023-09-02T14:12:00.429Z,102096.19
2023-09-02T14:15:04.164Z,102105.31
2023-09-02T14:18:08.214Z,102098.88
2023-09-02T14:21:11.874Z,102107.91
2023-09-02T14:24:16.873Z,102104.16
2023-09-02T14:27:20.464Z,102097.28
2023-09-02T14:30:23.940Z,102102.94
2023-09-02T14:33:27.598Z,102106.66
2023-09-02T14:36:31.108Z,102108.25
2023-09-02T14:39:37.981Z,102103.63
2023-09-02T14:42:42.178Z,102101.22
2023-09-02T14:45:46.414Z,102102.84
2023-09-02T14:48:50.267Z,102108.31
2023-09-02T14:51:54.139Z,102106.00
2023-09-02T14:54:59.031Z,102112.47
2023-09-02T14:58:04.136Z,102112.88
2023-09-02T15:01:09.274Z,102120.53
2023-09-02T15:04:14.974Z,102118.78
2023-09-02T15:07:18.804Z,102127.28
2023-09-02T15:10:28.834Z,102131.50
2023-09-02T15:13:33.069Z,102132.63
2023-09-02T15:16:36.936Z,102140.81
2023-09-02T15:19:41.266Z,102148.06
2023-09-02T15:22:45.043Z,102139.03
2023-09-02T15:25:53.241Z,102143.22
2023-09-02T15:28:57.929Z,102139.28
2023-09-02T15:32:04.868Z,102148.84
2023-09-02T15:35:09.902Z,102149.88
2023-09-02T15:38:20.304Z,102153.06
2023-09-02T15:41:26.032Z,102159.69
2023-09-02T15:44:30.081Z,102161.47
2023-09-02T15:47:33.713Z,102172.66
2023-09-02T15:50:37.800Z,102169.47
2023-09-02T15:53:41.371Z,102166.69
2023-09-02T15:56:46.934Z,102180.25
2023-09-02T15:59:51.763Z,102183.03
2023-09-02T16:02:57.218Z,102181.84
2023-09-02T16:06:01.253Z,102182.31
2023-09-02T16:09:05.691Z,102189.66
2023-09-02T16:12:10.786Z,102192.75
2023-09-02T16:15:28.384Z,102189.19
2023-09-02T16:18:32.373Z,102195.59
2023-09-02T16:21:35.888Z,102196.13
2023-09-02T16:24:39.362Z,102198.00
2023-09-02T16:27:44.350Z,102194.69
2023-09-02T16:30:48.101Z,102199.91
2023-09-02T16:33:51.706Z,102206.19
2023-09-02T16:36:55.476Z,102208.78
2023-09-02T16:40:01.313Z,102213.91
2023-09-02T16:43:06.894Z,102216.16
2023-09-02T16:46:12.535Z,102218.97
2023-09-02T16:49:19.573Z,102220.69
2023-09-02T16:52:23.090Z,102228.25
2023-09-02T16:55:28.998Z,102232.38
2023-09-02T16:58:35.351Z,102228.09
2023-09-02T17:01:41.090Z,102236.25
2023-09-02T17:04:45.459Z,102242.19
2023-09-02T17:07:50.498Z,102255.56
2023-09-02T17:11:02.985Z,102251.72
2023-09-02T17:14:09.583Z,102249.56
2023-09-02T17:17:14.093Z,102263.44
2023-09-02T17:20:29.975Z,102258.06
2023-09-02T17:23:36.034Z,102260.59
2023-09-02T17:26:40.312Z,102264.47
2023-09-02T17:29:45.375Z,102279.34
2023-09-02T17:32:50.859Z,102274.25
2023-09-02T17:35:54.597Z,102265.03
2023-09-02T17:38:58.125Z,102264.63
2023-09-02T17:42:01.708Z,102263.13
2023-09-02T17:45:08.176Z,102274.56
2023-09-02T17:48:11.796Z,102272.28
2023-09-02T17:51:16.624Z,102270.16
2023-09-02T17:54:20.166Z,102273.44
2023-09-02T17:57:23.774Z,102271.47
2023-09-02T18:00:28.921Z,102278.00
2023-09-02T18:03:32.589Z,102279.28
2023-09-02T18:06:36.467Z,102275.06
2023-09-02T18:09:41.195Z,102279.88
2023-09-02T18:12:44.889Z,102282.69
2023-09-02T18:15:51.044Z,102281.06
2023-09-02T18:18:55.021Z,102284.75
2023-09-02T18:21:58.505Z,102286.91
2023-09-02T18:25:03.404Z,102289.59
2023-09-02T18:28:08.304Z,102297.84
2023-09-02T18:31:13.701Z,102299.25
2023-09-02T18:34:17.246Z,102301.84
2023-09-02T18:37:20.798Z,102302.69
2023-09-02T18:40:24.588Z,102302.34
2023-09-02T18:43:28.134Z,102304.50
2023-09-02T18:46:33.183Z,102311.72
2023-09-02T18:49:36.804Z,102314.66
2023-09-02T18:52:40.465Z,102317.59
2023-09-02T18:55:44.022Z,102328.41
2023-09-02T18:58:48.508Z,102331.84
2023-09-02T19:01:53.374Z,102333.94
2023-09-02T19:04:57.145Z,102344.06
2023-09-02T19:08:00.816Z,102345.94
2023-09-02T19:11:04.729Z,102346.84
2023-09-02T19:14:08.381Z,102346.16
2023-09-02T19:17:13.470Z,102332.31
2023-09-02T19:20:17.624Z,102325.31
2023-09-02T19:23:21.629Z,102327.97
2023-09-02T19:26:25.249Z,102337.72
2023-09-02T19:29:29.066Z,102344.84
2023-09-02T19:32:34.471Z,102344.00
2023-09-02T19:35:38.455Z,102348.66
2023-09-02T19:38:42.268Z,102355.03
2023-09-02T19:41:46.212Z,102362.31
2023-09-02T19:44:49.754Z,102371.66
2023-09-02T19:47:55.298Z,102374.44
2023-09-02T19:50:58.802Z,102377.09
2023-09-02T19:54:02.406Z,102385.97
2023-09-02T19:57:06.648Z,102380.81
2023-09-02T20:00:12.254Z,102383.59
2023-09-02T20:03:18.989Z,102386.59
2023-09-02T20:06:22.831Z,102394.72
2023-09-02T20:09:26.304Z,102397.50
2023-09-02T20:12:30.630Z,102398.50
2023-09-02T20:15:34.476Z,102398.50
2023-09-02T20:18:39.758Z,102402.09
2023-09-02T20:21:43.251Z,102405.59
2023-09-02T20:24:46.756Z,102412.78
2023-09-02T20:27:50.217Z,102418.06
2023-09-02T20:30:54.248Z,102418.19
2023-09-02T20:33:59.220Z,102423.78
2023-09-02T20:37:02.852Z,102420.31
2023-09-02T20:40:08.691Z,102420.47
2023-09-02T20:43:14.836Z,102426.69
2023-09-02T20:46:18.488Z,102426.78
2023-09-02T20:49:23.433Z,102425.97
2023-09-02T20:52:27.035Z,102432.22
2023-09-02T20:55:32.213Z,102433.16
2023-09-02T20:58:35.990Z,102437.78
2023-09-02T21:01:39.568Z,102445.44
2023-09-02T21:04:46.817Z,102445.88
2023-09-02T21:07:50.615Z,102447.88
2023-09-02T21:10:56.040Z,102446.13
2023-09-02T21:13:59.613Z,102451.41
2023-09-02T21:17:03.194Z,102448.75
2023-09-02T21:20:09.876Z,102451.34
2023-09-02T21:23:13.408Z,102448.78
2023-09-02T21:26:17.465Z,102454.03
2023-09-02T21:29:20.970Z,102454.91
2023-09-02T21:32:24.675Z,102463.78
2023-09-02T21:35:29.603Z,102478.91
2023-09-02T21:38:34.448Z,102479.84
2023-09-02T21:41:38.608Z,102484.28
2023-09-02T21:44:42.664Z,102480.88
2023-09-02T21:47:46.265Z,102479.09
2023-09-02T21:50:51.340Z,102479.16
2023-09-02T21:53:57.817Z,102474.78
2023-09-02T21:57:01.553Z,102481.91
2023-09-02T22:00:08.234Z,102489.88
2023-09-02T22:03:12.092Z,102494.44
2023-09-02T22:06:17.789Z,102497.06
2023-09-02T22:09:21.547Z,102498.03
2023-09-02T22:12:25.046Z,102496.28
2023-09-02T22:15:28.593Z,102503.31
2023-09-02T22:18:32.257Z,102496.34
2023-09-02T22:21:37.559Z,102490.31
2023-09-02T22:24:41.039Z,102486.78
2023-09-02T22:27:44.556Z,102499.19
2023-09-02T22:30:48.032Z,102497.41
2023-09-02T22:33:51.663Z,102496.56
2023-09-02T22:36:57.084Z,102507.06
2023-09-02T22:40:00.736Z,102499.19
2023-09-02T22:43:04.451Z,102501.88
2023-09-02T22:46:10.817Z,102505.47
2023-09-02T22:49:26.657Z,102510.75
2023-09-02T22:52:31.668Z,102517.72
2023-09-02T22:55:36.780Z,102529.31
2023-09-02T22:58:40.477Z,102534.78
2023-09-02T23:01:44.064Z,102538.22
2023-09-02T23:04:50.005Z,102537.41
2023-09-02T23:07:56.520Z,102538.34
2023-09-02T23:11:00.912Z,102533.84
2023-09-02T23:14:04.562Z,102534.78
2023-09-02T23:17:08.175Z,102529.50
2023-09-02T23:20:13.561Z,102532.13
2023-09-02T23:23:18.509Z,102540.81
2023-09-02T23:26:22.074Z,102547.94
2023-09-02T23:29:25.834Z,102546.34
2023-09-02T23:32:29.982Z,102535.75
2023-09-02T23:35:33.775Z,102534.88
2023-09-02T23:38:38.658Z,102536.75
2023-09-02T23:41:42.276Z,102540.28
2023-09-02T23:44:45.861Z,102528.94
2023-09-02T23:47:49.642Z,102528.09
2023-09-02T23:50:53.365Z,102528.94
2023-09-02T23:53:58.336Z,102535.09
2023-09-02T23:57:01.793Z,102540.41
